sensor_id;sensor_type;location;lat;lon;timestamp;pressure;altitude;pressure_sealevel;temperature;humidity
80976;BME280;70437;49.466;11.002;2023-06-14T00:01:55;97770.34;;;17.48;40.34
80976;BME280;70437;49.466;11.002;2023-06-14T00:04:23;97759.81;;;17.36;40.44
80976;BME280;70437;49.466;11.002;2023-06-14T00:06:51;97766.84;;;17.42;40.31
80976;BME280;70437;49.466;11.002;2023-06-14T00:09:17;97766.56;;;17.43;40.75
80976;BME280;70437;49.466;11.002;2023-06-14T00:11:47;97769.03;;;17.35;40.75
80976;BME280;70437;49.466;11.002;2023-06-14T00:14:14;97765.53;;;17.29;40.91
80976;BME280;70437;49.466;11.002;2023-06-14T00:16:41;97760.63;;;17.31;41.03
80976;BME280;70437;49.466;11.002;2023-06-14T00:19:09;97758.28;;;17.14;41.05
80976;BME280;70437;49.466;11.002;2023-06-14T00:21:36;97759.88;;;17.05;41.48
80976;BME280;70437;49.466;11.002;2023-06-14T00:24:04;97749.34;;;17.09;41.79
80976;BME280;70437;49.466;11.002;2023-06-14T00:26:31;97760.16;;;17.09;41.40
80976;BME280;70437;49.466;11.002;2023-06-14T00:28:57;97758.03;;;16.96;41.94
80976;BME280;70437;49.466;11.002;2023-06-14T00:31:26;97758.84;;;16.91;42.38
80976;BME280;70437;49.466;11.002;2023-06-14T00:33:54;97753.97;;;16.83;42.46
80976;BME280;70437;49.466;11.002;2023-06-14T00:36:21;97758.56;;;16.98;42.30
80976;BME280;70437;49.466;11.002;2023-06-14T00:38:47;97749.38;;;16.93;42.12
80976;BME280;70437;49.466;11.002;2023-06-14T00:41:13;97739.09;;;16.90;42.37
80976;BME280;70437;49.466;11.002;2023-06-14T00:43:42;97737.78;;;16.88;42.32
80976;BME280;70437;49.466;11.002;2023-06-14T00:46:09;97745.88;;;16.88;42.40
80976;BME280;70437;49.466;11.002;2023-06-14T00:48:38;97746.97;;;16.77;43.36
80976;BME280;70437;49.466;11.002;2023-06-14T00:51:06;97749.94;;;16.80;42.79
80976;BME280;70437;49.466;11.002;2023-06-14T00:53:33;97757.78;;;16.82;43.09
80976;BME280;70437;49.466;11.002;2023-06-14T00:56:02;97761.84;;;16.79;43.21
80976;BME280;70437;49.466;11.002;2023-06-14T00:58:30;97761.84;;;16.74;43.34
80976;BME280;70437;49.466;11.002;2023-06-14T01:00:57;97755.63;;;16.58;43.43
80976;BME280;70437;49.466;11.002;2023-06-14T01:03:24;97760.50;;;16.61;43.46
80976;BME280;70437;49.466;11.002;2023-06-14T01:06:00;97753.19;;;16.57;43.50
80976;BME280;70437;49.466;11.002;2023-06-14T01:11:22;97759.94;;;16.29;44.02
80976;BME280;70437;49.466;11.002;2023-06-14T01:13:50;97756.94;;;16.05;44.60
80976;BME280;70437;49.466;11.002;2023-06-14T01:16:18;97755.31;;;16.14;44.18
80976;BME280;70437;49.466;11.002;2023-06-14T01:18:44;97757.75;;;16.15;44.27
80976;BME280;70437;49.466;11.002;2023-06-14T01:21:24;97763.44;;;16.14;44.47
80976;BME280;70437;49.466;11.002;2023-06-14T01:23:52;97761.81;;;16.08;44.36
80976;BME280;70437;49.466;11.002;2023-06-14T01:26:22;97764.75;;;15.96;45.24
80976;BME280;70437;49.466;11.002;2023-06-14T01:28:50;97761.78;;;15.92;45.04
80976;BME280;70437;49.466;11.002;2023-06-14T01:31:20;97762.06;;;16.01;45.03
80976;BME280;70437;49.466;11.002;2023-06-14T01:33:50;97765.03;;;16.00;44.87
80976;BME280;70437;49.466;11.002;2023-06-14T01:36:19;97762.03;;;15.91;45.46
80976;BME280;70437;49.466;11.002;2023-06-14T01:38:47;97769.88;;;15.92;44.96
80976;BME280;70437;49.466;11.002;2023-06-14T01:41:18;97766.66;;;15.96;45.35
80976;BME280;70437;49.466;11.002;2023-06-14T01:43:47;97769.63;;;15.94;45.30
80976;BME280;70437;49.466;11.002;2023-06-14T01:46:15;97761.53;;;15.94;44.98
80976;BME280;70437;49.466;11.002;2023-06-14T01:48:43;97767.44;;;15.91;45.27
80976;BME280;70437;49.466;11.002;2023-06-14T01:51:12;97758.75;;;15.69;45.83
80976;BME280;70437;49.466;11.002;2023-06-14T01:53:38;97763.59;;;15.66;45.56
80976;BME280;70437;49.466;11.002;2023-06-14T01:56:04;97761.63;;;15.57;45.69
80976;BME280;70437;49.466;11.002;2023-06-14T01:58:31;97768.63;;;15.48;46.48
80976;BME280;70437;49.466;11.002;2023-06-14T02:00:59;97757.78;;;15.37;46.67
80976;BME280;70437;49.466;11.002;2023-06-14T02:03:28;97761.00;;;15.34;47.00
80976;BME280;70437;49.466;11.002;2023-06-14T02:05:54;97772.03;;;15.23;46.91
80976;BME280;70437;49.466;11.002;2023-06-14T02:08:21;97774.47;;;15.29;47.44
80976;BME280;70437;49.466;11.002;2023-06-14T02:10:49;97770.72;;;15.35;46.84
80976;BME280;70437;49.466;11.002;2023-06-14T02:13:15;97771.16;;;15.17;47.56
80976;BME280;70437;49.466;11.002;2023-06-14T02:15:42;97769.25;;;15.12;47.32
80976;BME280;70437;49.466;11.002;2023-06-14T02:18:12;97766.34;;;15.19;47.92
80976;BME280;70437;49.466;11.002;2023-06-14T02:20:38;97759.88;;;15.20;47.11
80976;BME280;70437;49.466;11.002;2023-06-14T02:23:07;97761.47;;;15.16;47.47
80976;BME280;70437;49.466;11.002;2023-06-14T02:25:33;97764.72;;;15.18;47.50
80976;BME280;70437;49.466;11.002;2023-06-14T02:28:00;97760.53;;;14.95;48.17
80976;BME280;70437;49.466;11.002;2023-06-14T02:30:27;97760.47;;;14.85;48.07
80976;BME280;70437;49.466;11.002;2023-06-14T02:32:56;97763.13;;;14.80;48.55
80976;BME280;70437;49.466;11.002;2023-06-14T02:35:22;97769.34;;;14.80;48.69
80976;BME280;70437;49.466;11.002;2023-06-14T02:37:52;97768.28;;;14.86;48.44
80976;BME280;70437;49.466;11.002;2023-06-14T02:40:22;97778.50;;;14.79;48.85
80976;BME280;70437;49.466;11.002;2023-06-14T02:42:50;97785.22;;;14.77;48.95
80976;BME280;70437;49.466;11.002;2023-06-14T02:45:17;97784.97;;;14.78;48.85
80976;BME280;70437;49.466;11.002;2023-06-14T02:47:44;97777.72;;;14.84;49.05
80976;BME280;70437;49.466;11.002;2023-06-14T02:50:12;97780.94;;;14.81;48.79
80976;BME280;70437;49.466;11.002;2023-06-14T02:52:39;97786.88;;;14.78;49.16
80976;BME280;70437;49.466;11.002;2023-06-14T02:55:08;97789.06;;;14.86;48.51
80976;BME280;70437;49.466;11.002;2023-06-14T02:57:36;97782.31;;;14.83;48.99
80976;BME280;70437;49.466;11.002;2023-06-14T03:00:03;97788.25;;;14.85;48.69
80976;BME280;70437;49.466;11.002;2023-06-14T03:02:33;97792.00;;;14.79;49.40
80976;BME280;70437;49.466;11.002;2023-06-14T03:04:59;97799.81;;;14.81;49.17
80976;BME280;70437;49.466;11.002;2023-06-14T03:07:30;97799.03;;;14.85;49.50
80976;BME280;70437;49.466;11.002;2023-06-14T03:09:57;97790.81;;;14.65;50.31
80976;BME280;70437;49.466;11.002;2023-06-14T03:12:23;97786.13;;;14.55;50.33
80976;BME280;70437;49.466;11.002;2023-06-14T03:14:50;97796.44;;;14.63;50.51
80976;BME280;70437;49.466;11.002;2023-06-14T03:17:20;97798.91;;;14.65;50.02
80976;BME280;70437;49.466;11.002;2023-06-14T03:19:47;97798.03;;;14.59;50.18
80976;BME280;70437;49.466;11.002;2023-06-14T03:22:15;97795.44;;;14.43;51.08
80976;BME280;70437;49.466;11.002;2023-06-14T03:24:43;97801.59;;;14.38;51.05
80976;BME280;70437;49.466;11.002;2023-06-14T03:27:16;97800.19;;;14.30;51.89
80976;BME280;70437;49.466;11.002;2023-06-14T03:29:46;97813.03;;;14.23;51.72
80976;BME280;70437;49.466;11.002;2023-06-14T03:32:14;97817.56;;;14.18;51.80
80976;BME280;70437;49.466;11.002;2023-06-14T03:34:42;97815.53;;;14.30;51.32
80976;BME280;70437;49.466;11.002;2023-06-14T03:37:16;97815.13;;;14.16;51.80
80976;BME280;70437;49.466;11.002;2023-06-14T03:39:42;97815.28;;;14.31;51.54
80976;BME280;70437;49.466;11.002;2023-06-14T03:42:18;97806.47;;;14.41;51.24
80976;BME280;70437;49.466;11.002;2023-06-14T03:44:46;97818.69;;;14.49;50.42
80976;BME280;70437;49.466;11.002;2023-06-14T03:47:14;97819.25;;;14.51;50.89
80976;BME280;70437;49.466;11.002;2023-06-14T03:49:41;97815.31;;;14.63;50.54
80976;BME280;70437;49.466;11.002;2023-06-14T03:52:10;97819.97;;;14.73;50.55
80976;BME280;70437;49.466;11.002;2023-06-14T03:54:39;97833.59;;;14.56;50.58
80976;BME280;70437;49.466;11.002;2023-06-14T03:57:06;97842.16;;;14.48;51.22
80976;BME280;70437;49.466;11.002;2023-06-14T03:59:33;97833.88;;;14.33;51.72
80976;BME280;70437;49.466;11.002;2023-06-14T04:01:59;97841.91;;;14.28;51.97
80976;BME280;70437;49.466;11.002;2023-06-14T04:04:26;97850.34;;;14.36;52.04
80976;BME280;70437;49.466;11.002;2023-06-14T04:06:56;97849.00;;;14.34;51.92
80976;BME280;70437;49.466;11.002;2023-06-14T04:09:24;97849.59;;;14.41;52.22
80976;BME280;70437;49.466;11.002;2023-06-14T04:11:52;97845.84;;;14.42;52.12
80976;BME280;70437;49.466;11.002;2023-06-14T04:14:22;97853.50;;;14.28;52.08
80976;BME280;70437;49.466;11.002;2023-06-14T04:16:49;97853.75;;;14.27;52.19
80976;BME280;70437;49.466;11.002;2023-06-14T04:19:17;97858.44;;;14.36;52.47
80976;BME280;70437;49.466;11.002;2023-06-14T04:21:47;97853.66;;;14.44;52.13
80976;BME280;70437;49.466;11.002;2023-06-14T04:24:15;97855.13;;;14.51;51.66
80976;BME280;70437;49.466;11.002;2023-06-14T04:26:45;97848.59;;;14.47;51.88
80976;BME280;70437;49.466;11.002;2023-06-14T04:29:15;97862.19;;;14.57;51.99
80976;BME280;70437;49.466;11.002;2023-06-14T04:31:43;97855.53;;;14.65;51.62
80976;BME280;70437;49.466;11.002;2023-06-14T04:34:14;97855.31;;;14.77;50.98
80976;BME280;70437;49.466;11.002;2023-06-14T04:36:46;97857.25;;;14.81;51.42
80976;BME280;70437;49.466;11.002;2023-06-14T04:39:16;97865.13;;;14.88;50.94
80976;BME280;70437;49.466;11.002;2023-06-14T04:41:46;97864.84;;;14.84;50.95
80976;BME280;70437;49.466;11.002;2023-06-14T04:44:13;97870.66;;;14.71;51.10
80976;BME280;70437;49.466;11.002;2023-06-14T04:46:43;97868.88;;;14.55;51.03
80976;BME280;70437;49.466;11.002;2023-06-14T04:49:16;97878.22;;;14.47;51.22
80976;BME280;70437;49.466;11.002;2023-06-14T04:51:44;97870.72;;;14.49;51.19
80976;BME280;70437;49.466;11.002;2023-06-14T04:54:11;97874.00;;;14.51;51.26
80976;BME280;70437;49.466;11.002;2023-06-14T04:56:42;97877.50;;;14.52;51.69
80976;BME280;70437;49.466;11.002;2023-06-14T04:59:10;97884.28;;;14.59;51.30
80976;BME280;70437;49.466;11.002;2023-06-14T05:01:38;97877.03;;;14.92;50.92
80976;BME280;70437;49.466;11.002;2023-06-14T05:04:04;97881.53;;;15.13;49.93
80976;BME280;70437;49.466;11.002;2023-06-14T05:06:30;97886.19;;;15.23;49.44
80976;BME280;70437;49.466;11.002;2023-06-14T05:08:58;97884.22;;;15.13;50.00
80976;BME280;70437;49.466;11.002;2023-06-14T05:11:25;97884.41;;;15.02;50.07
80976;BME280;70437;49.466;11.002;2023-06-14T05:13:53;97882.28;;;15.09;50.18
80976;BME280;70437;49.466;11.002;2023-06-14T05:16:20;97884.75;;;15.15;50.03
80976;BME280;70437;49.466;11.002;2023-06-14T05:18:49;97877.34;;;15.38;49.55
80976;BME280;70437;49.466;11.002;2023-06-14T05:21:17;97877.09;;;15.39;49.54
80976;BME280;70437;49.466;11.002;2023-06-14T05:23:45;97880.25;;;15.26;50.27
80976;BME280;70437;49.466;11.002;2023-06-14T05:26:12;97878.75;;;15.46;49.72
80976;BME280;70437;49.466;11.002;2023-06-14T05:28:38;97887.66;;;15.41;49.58
80976;BME280;70437;49.466;11.002;2023-06-14T05:31:05;97888.28;;;15.58;49.61
80976;BME280;70437;49.466;11.002;2023-06-14T05:33:32;97890.03;;;15.85;49.37
80976;BME280;70437;49.466;11.002;2023-06-14T05:35:58;97889.81;;;15.91;49.07
80976;BME280;70437;49.466;11.002;2023-06-14T05:38:24;97888.50;;;15.99;49.42
80976;BME280;70437;49.466;11.002;2023-06-14T05:40:51;97885.50;;;15.90;49.53
80976;BME280;70437;49.466;11.002;2023-06-14T05:43:18;97892.22;;;15.88;49.40
80976;BME280;70437;49.466;11.002;2023-06-14T05:45:44;97893.66;;;16.11;49.35
80976;BME280;70437;49.466;11.002;2023-06-14T05:48:10;97904.28;;;16.28;49.12
80976;BME280;70437;49.466;11.002;2023-06-14T05:50:36;97892.22;;;15.88;49.78
80976;BME280;70437;49.466;11.002;2023-06-14T05:53:03;97901.75;;;16.06;49.69
80976;BME280;70437;49.466;11.002;2023-06-14T05:55:29;97891.56;;;16.23;49.38
80976;BME280;70437;49.466;11.002;2023-06-14T05:57:56;97895.06;;;16.18;49.55
80976;BME280;70437;49.466;11.002;2023-06-14T06:00:22;97904.28;;;16.33;49.33
80976;BME280;70437;49.466;11.002;2023-06-14T06:02:51;97901.84;;;16.21;49.46
80976;BME280;70437;49.466;11.002;2023-06-14T06:05:17;97901.53;;;16.17;49.73
80976;BME280;70437;49.466;11.002;2023-06-14T06:07:44;97911.59;;;16.32;49.68
80976;BME280;70437;49.466;11.002;2023-06-14T06:10:11;97908.88;;;16.32;50.27
80976;BME280;70437;49.466;11.002;2023-06-14T06:12:37;97903.75;;;16.31;50.15
80976;BME280;70437;49.466;11.002;2023-06-14T06:15:04;97898.13;;;16.58;48.98
80976;BME280;70437;49.466;11.002;2023-06-14T06:17:31;97906.59;;;16.97;48.39
80976;BME280;70437;49.466;11.002;2023-06-14T06:19:57;97900.34;;;17.22;48.06
80976;BME280;70437;49.466;11.002;2023-06-14T06:22:23;97904.69;;;17.33;47.51
80976;BME280;70437;49.466;11.002;2023-06-14T06:24:50;97911.19;;;17.22;47.49
80976;BME280;70437;49.466;11.002;2023-06-14T06:27:17;97906.06;;;17.15;47.22
80976;BME280;70437;49.466;11.002;2023-06-14T06:29:44;97919.31;;;17.12;48.15
80976;BME280;70437;49.466;11.002;2023-06-14T06:32:11;97917.97;;;17.14;47.85
80976;BME280;70437;49.466;11.002;2023-06-14T06:34:37;97911.19;;;16.97;48.61
80976;BME280;70437;49.466;11.002;2023-06-14T06:37:05;97921.47;;;17.15;48.63
80976;BME280;70437;49.466;11.002;2023-06-14T06:39:33;97917.13;;;17.29;47.85
80976;BME280;70437;49.466;11.002;2023-06-14T06:42:00;97925.25;;;17.55;46.58
80976;BME280;70437;49.466;11.002;2023-06-14T06:44:35;97922.22;;;17.77;46.20
80976;BME280;70437;49.466;11.002;2023-06-14T06:47:02;97921.91;;;17.93;45.69
80976;BME280;70437;49.466;11.002;2023-06-14T06:49:28;97928.44;;;17.72;46.11
80976;BME280;70437;49.466;11.002;2023-06-14T06:52:04;97921.94;;;17.83;46.34
80976;BME280;70437;49.466;11.002;2023-06-14T06:54:33;97933.00;;;17.97;45.35
80976;BME280;70437;49.466;11.002;2023-06-14T06:57:00;97930.81;;;17.99;45.09
80976;BME280;70437;49.466;11.002;2023-06-14T06:59:28;97940.84;;;17.99;45.01
80976;BME280;70437;49.466;11.002;2023-06-14T07:01:54;97937.59;;;18.02;44.67
80976;BME280;70437;49.466;11.002;2023-06-14T07:04:21;97935.13;;;18.10;45.15
80976;BME280;70437;49.466;11.002;2023-06-14T07:06:47;97934.38;;;17.89;45.48
80976;BME280;70437;49.466;11.002;2023-06-14T07:09:14;97929.81;;;17.64;46.40
80976;BME280;70437;49.466;11.002;2023-06-14T07:11:43;97931.19;;;17.77;45.83
80976;BME280;70437;49.466;11.002;2023-06-14T12:17:44;97951.22;;;23.59;26.55
80976;BME280;70437;49.466;11.002;2023-06-14T12:20:13;97941.63;;;23.70;26.18
80976;BME280;70437;49.466;11.002;2023-06-14T12:22:55;97942.75;;;24.01;25.91
80976;BME280;70437;49.466;11.002;2023-06-14T12:25:32;97943.47;;;23.84;25.79
80976;BME280;70437;49.466;11.002;2023-06-14T12:28:06;97948.25;;;24.09;25.38
80976;BME280;70437;49.466;11.002;2023-06-14T12:30:33;97936.50;;;24.57;24.86
80976;BME280;70437;49.466;11.002;2023-06-14T12:33:02;97935.63;;;25.14;24.76
80976;BME280;70437;49.466;11.002;2023-06-14T12:35:29;97939.69;;;26.78;22.10
80976;BME280;70437;49.466;11.002;2023-06-14T12:37:56;97935.59;;;28.05;20.62
80976;BME280;70437;49.466;11.002;2023-06-14T12:40:23;97940.81;;;27.40;21.17
80976;BME280;70437;49.466;11.002;2023-06-14T12:42:50;97943.16;;;26.37;22.39
80976;BME280;70437;49.466;11.002;2023-06-14T12:45:16;97940.38;;;25.60;23.41
80976;BME280;70437;49.466;11.002;2023-06-14T12:47:42;97947.97;;;24.77;24.30
80976;BME280;70437;49.466;11.002;2023-06-14T12:50:09;97946.22;;;24.24;24.59
80976;BME280;70437;49.466;11.002;2023-06-14T12:52:36;97947.16;;;23.57;25.23
80976;BME280;70437;49.466;11.002;2023-06-14T12:55:05;97953.44;;;23.57;25.43
80976;BME280;70437;49.466;11.002;2023-06-14T12:57:34;97949.84;;;23.48;24.62
80976;BME280;70437;49.466;11.002;2023-06-14T13:00:04;97956.16;;;23.57;25.00
80976;BME280;70437;49.466;11.002;2023-06-14T13:02:33;97960.09;;;23.20;25.76
80976;BME280;70437;49.466;11.002;2023-06-14T13:05:00;97955.84;;;23.28;26.47
80976;BME280;70437;49.466;11.002;2023-06-14T13:07:30;97967.09;;;23.49;25.73
80976;BME280;70437;49.466;11.002;2023-06-14T13:09:57;97970.16;;;23.56;24.72
80976;BME280;70437;49.466;11.002;2023-06-14T13:12:24;97958.38;;;23.46;25.36
80976;BME280;70437;49.466;11.002;2023-06-14T13:14:51;97957.94;;;23.53;25.68
80976;BME280;70437;49.466;11.002;2023-06-14T13:17:17;97962.03;;;23.64;25.71
80976;BME280;70437;49.466;11.002;2023-06-14T13:19:47;97961.28;;;23.73;25.41
80976;BME280;70437;49.466;11.002;2023-06-14T13:22:13;97955.16;;;23.67;25.81
80976;BME280;70437;49.466;11.002;2023-06-14T13:24:40;97963.88;;;23.78;25.59
80976;BME280;70437;49.466;11.002;2023-06-14T13:27:07;97955.88;;;23.59;25.90
80976;BME280;70437;49.466;11.002;2023-06-14T13:29:35;97966.31;;;23.57;25.98
80976;BME280;70437;49.466;11.002;2023-06-14T13:32:03;97962.50;;;23.89;25.44
80976;BME280;70437;49.466;11.002;2023-06-14T13:34:29;97952.28;;;24.03;24.66
80976;BME280;70437;49.466;11.002;2023-06-14T13:36:55;97954.69;;;24.05;25.19
80976;BME280;70437;49.466;11.002;2023-06-14T13:39:22;97955.25;;;24.33;25.36
80976;BME280;70437;49.466;11.002;2023-06-14T13:41:49;97957.56;;;24.39;25.45
80976;BME280;70437;49.466;11.002;2023-06-14T13:44:15;97960.16;;;24.44;25.23
80976;BME280;70437;49.466;11.002;2023-06-14T13:46:44;97952.34;;;25.21;23.78
80976;BME280;70437;49.466;11.002;2023-06-14T13:49:11;97947.81;;;25.51;23.82
80976;BME280;70437;49.466;11.002;2023-06-14T13:51:38;97950.41;;;25.30;23.64
80976;BME280;70437;49.466;11.002;2023-06-14T13:54:04;97949.44;;;25.09;23.67
80976;BME280;70437;49.466;11.002;2023-06-14T13:56:31;97943.00;;;25.05;24.41
80976;BME280;70437;49.466;11.002;2023-06-14T13:59:01;97948.78;;;24.86;23.93
80976;BME280;70437;49.466;11.002;2023-06-14T14:01:28;97943.00;;;24.96;23.49
80976;BME280;70437;49.466;11.002;2023-06-14T14:03:54;97939.91;;;25.50;22.94
80976;BME280;70437;49.466;11.002;2023-06-14T14:06:22;97934.25;;;26.49;21.51
80976;BME280;70437;49.466;11.002;2023-06-14T14:08:48;97935.34;;;26.48;21.67
80976;BME280;70437;49.466;11.002;2023-06-14T14:11:15;97941.63;;;25.80;22.16
80976;BME280;70437;49.466;11.002;2023-06-14T14:13:42;97935.47;;;25.75;22.05
80976;BME280;70437;49.466;11.002;2023-06-14T14:16:08;97934.44;;;25.50;22.91
80976;BME280;70437;49.466;11.002;2023-06-14T14:18:37;97926.91;;;26.23;21.69
80976;BME280;70437;49.466;11.002;2023-06-14T14:21:03;97934.41;;;26.94;20.75
80976;BME280;70437;49.466;11.002;2023-06-14T14:23:31;97934.66;;;26.59;21.61
80976;BME280;70437;49.466;11.002;2023-06-14T14:25:57;97931.06;;;26.29;22.32
80976;BME280;70437;49.466;11.002;2023-06-14T14:28:25;97935.38;;;26.09;22.61
80976;BME280;70437;49.466;11.002;2023-06-14T14:30:52;97931.03;;;26.38;22.26
80976;BME280;70437;49.466;11.002;2023-06-14T14:33:20;97925.94;;;26.99;22.10
80976;BME280;70437;49.466;11.002;2023-06-14T14:35:47;97934.22;;;27.20;21.75
80976;BME280;70437;49.466;11.002;2023-06-14T14:38:14;97939.53;;;26.15;22.61
80976;BME280;70437;49.466;11.002;2023-06-14T14:40:44;97945.44;;;25.96;23.10
80976;BME280;70437;49.466;11.002;2023-06-14T14:43:11;97941.34;;;26.11;23.07
80976;BME280;70437;49.466;11.002;2023-06-14T14:45:38;97940.88;;;26.09;22.71
80976;BME280;70437;49.466;11.002;2023-06-14T14:48:06;97937.28;;;26.17;22.60
80976;BME280;70437;49.466;11.002;2023-06-14T14:50:33;97943.78;;;25.49;22.91
80976;BME280;70437;49.466;11.002;2023-06-14T14:52:59;97934.53;;;25.62;22.54
80976;BME280;70437;49.466;11.002;2023-06-14T14:55:26;97941.16;;;25.69;22.62
80976;BME280;70437;49.466;11.002;2023-06-14T14:57:53;97928.94;;;26.43;21.70
80976;BME280;70437;49.466;11.002;2023-06-14T15:00:19;97930.69;;;26.48;20.79
80976;BME280;70437;49.466;11.002;2023-06-14T15:02:46;97931.66;;;26.14;21.39
80976;BME280;70437;49.466;11.002;2023-06-14T15:05:15;97927.13;;;25.54;22.26
80976;BME280;70437;49.466;11.002;2023-06-14T15:07:42;97923.50;;;25.32;22.72
80976;BME280;70437;49.466;11.002;2023-06-14T15:10:08;97931.53;;;25.37;22.63
80976;BME280;70437;49.466;11.002;2023-06-14T15:12:36;97924.75;;;25.00;22.76
80976;BME280;70437;49.466;11.002;2023-06-14T15:15:03;97926.41;;;24.92;23.05
80976;BME280;70437;49.466;11.002;2023-06-14T15:17:30;97928.31;;;24.83;23.40
80976;BME280;70437;49.466;11.002;2023-06-14T15:19:56;97927.50;;;24.57;23.04
80976;BME280;70437;49.466;11.002;2023-06-14T15:22:23;97936.19;;;24.59;23.28
80976;BME280;70437;49.466;11.002;2023-06-14T15:24:50;97930.09;;;24.88;23.34
80976;BME280;70437;49.466;11.002;2023-06-14T15:27:18;97925.72;;;25.04;23.65
80976;BME280;70437;49.466;11.002;2023-06-14T15:29:46;97930.56;;;25.07;23.30
80976;BME280;70437;49.466;11.002;2023-06-14T15:32:12;97927.19;;;24.93;23.53
80976;BME280;70437;49.466;11.002;2023-06-14T15:34:39;97931.06;;;25.18;23.32
80976;BME280;70437;49.466;11.002;2023-06-14T15:37:08;97922.03;;;25.35;23.02
80976;BME280;70437;49.466;11.002;2023-06-14T15:39:34;97926.81;;;26.40;21.60
80976;BME280;70437;49.466;11.002;2023-06-14T15:42:04;97919.66;;;27.19;20.59
80976;BME280;70437;49.466;11.002;2023-06-14T15:44:33;97925.59;;;26.59;21.31
80976;BME280;70437;49.466;11.002;2023-06-14T15:47:01;97929.75;;;26.44;21.20
80976;BME280;70437;49.466;11.002;2023-06-14T15:49:27;97936.72;;;26.03;20.24
80976;BME280;70437;49.466;11.002;2023-06-14T15:51:55;97929.59;;;25.46;21.76
80976;BME280;70437;49.466;11.002;2023-06-14T15:54:21;97929.84;;;25.71;21.94
80976;BME280;70437;49.466;11.002;2023-06-14T15:56:47;97916.50;;;26.08;21.11
80976;BME280;70437;49.466;11.002;2023-06-14T15:59:13;97928.66;;;25.16;22.24
80976;BME280;70437;49.466;11.002;2023-06-14T16:01:40;97927.97;;;24.67;23.18
80976;BME280;70437;49.466;11.002;2023-06-14T16:04:07;97925.25;;;24.67;22.82
80976;BME280;70437;49.466;11.002;2023-06-14T16:06:34;97930.41;;;24.78;23.35
80976;BME280;70437;49.466;11.002;2023-06-14T16:09:05;97931.66;;;24.45;23.68
80976;BME280;70437;49.466;11.002;2023-06-14T16:11:32;97935.56;;;24.70;22.85
80976;BME280;70437;49.466;11.002;2023-06-14T16:13:59;97919.94;;;24.71;23.53
80976;BME280;70437;49.466;11.002;2023-06-14T16:16:26;97924.44;;;24.67;24.10
80976;BME280;70437;49.466;11.002;2023-06-14T16:18:52;97927.66;;;24.78;23.84
80976;BME280;70437;49.466;11.002;2023-06-14T16:21:19;97922.50;;;24.67;24.63
80976;BME280;70437;49.466;11.002;2023-06-14T16:23:46;97930.31;;;24.34;25.20
80976;BME280;70437;49.466;11.002;2023-06-14T16:26:14;97936.50;;;24.09;25.68
80976;BME280;70437;49.466;11.002;2023-06-14T16:28:43;97934.41;;;24.06;25.58
80976;BME280;70437;49.466;11.002;2023-06-14T16:31:12;97941.56;;;23.84;25.80
80976;BME280;70437;49.466;11.002;2023-06-14T16:33:40;97940.31;;;23.90;26.41
80976;BME280;70437;49.466;11.002;2023-06-14T16:37:00;97939.06;;;24.05;24.96
80976;BME280;70437;49.466;11.002;2023-06-14T16:39:27;97944.41;;;23.79;25.93
80976;BME280;70437;49.466;11.002;2023-06-14T16:41:53;97947.06;;;23.62;26.02
80976;BME280;70437;49.466;11.002;2023-06-14T16:44:25;97950.50;;;23.45;26.77
80976;BME280;70437;49.466;11.002;2023-06-14T16:46:59;97939.03;;;23.43;26.65
80976;BME280;70437;49.466;11.002;2023-06-14T16:49:28;97952.28;;;23.50;26.86
80976;BME280;70437;49.466;11.002;2023-06-14T16:51:54;97945.22;;;23.49;26.76
80976;BME280;70437;49.466;11.002;2023-06-14T16:54:21;97949.69;;;23.44;27.26
80976;BME280;70437;49.466;11.002;2023-06-14T16:56:47;97947.28;;;23.52;27.47
80976;BME280;70437;49.466;11.002;2023-06-14T16:59:14;97952.41;;;23.44;27.56
80976;BME280;70437;49.466;11.002;2023-06-14T17:01:41;97952.66;;;23.34;27.37
80976;BME280;70437;49.466;11.002;2023-06-14T17:04:07;97951.72;;;23.16;27.50
80976;BME280;70437;49.466;11.002;2023-06-14T17:06:34;97945.22;;;23.26;27.43
80976;BME280;70437;49.466;11.002;2023-06-14T17:09:01;97947.06;;;23.39;27.47
80976;BME280;70437;49.466;11.002;2023-06-14T17:11:28;97953.09;;;23.50;27.76
80976;BME280;70437;49.466;11.002;2023-06-14T17:13:54;97962.28;;;23.54;27.57
80976;BME280;70437;49.466;11.002;2023-06-14T17:16:21;97956.44;;;23.47;27.90
80976;BME280;70437;49.466;11.002;2023-06-14T17:18:49;97962.63;;;23.84;27.28
80976;BME280;70437;49.466;11.002;2023-06-14T17:21:15;97968.50;;;23.46;27.94
80976;BME280;70437;49.466;11.002;2023-06-14T17:23:42;97963.91;;;23.33;28.04
80976;BME280;70437;49.466;11.002;2023-06-14T17:26:08;97964.03;;;23.28;27.95
80976;BME280;70437;49.466;11.002;2023-06-14T17:28:35;97967.75;;;23.32;27.98
80976;BME280;70437;49.466;11.002;2023-06-14T17:31:05;97976.56;;;23.06;27.88
80976;BME280;70437;49.466;11.002;2023-06-14T17:33:31;97971.16;;;23.15;27.71
80976;BME280;70437;49.466;11.002;2023-06-14T17:35:57;97977.44;;;23.15;27.82
80976;BME280;70437;49.466;11.002;2023-06-14T17:38:25;97976.69;;;23.01;27.82
80976;BME280;70437;49.466;11.002;2023-06-14T17:40:55;97979.81;;;22.81;28.09
80976;BME280;70437;49.466;11.002;2023-06-14T17:43:21;97979.81;;;22.81;27.81
80976;BME280;70437;49.466;11.002;2023-06-14T17:45:47;97984.19;;;22.95;27.52
80976;BME280;70437;49.466;11.002;2023-06-14T17:48:13;97986.72;;;22.78;28.20
80976;BME280;70437;49.466;11.002;2023-06-14T17:50:40;97985.44;;;22.48;28.98
80976;BME280;70437;49.466;11.002;2023-06-14T17:53:07;97993.53;;;22.53;29.25
80976;BME280;70437;49.466;11.002;2023-06-14T17:55:33;97989.69;;;22.40;29.53
80976;BME280;70437;49.466;11.002;2023-06-14T17:58:02;97995.34;;;22.30;29.87
80976;BME280;70437;49.466;11.002;2023-06-14T18:00:30;97995.84;;;22.18;29.98